Time;durP1;ratioP1;P1;durP2;ratioP2;P2;SDS_P1;SDS_P2;PMS_P1;PMS_P2;Temp;Humidity;BMP_temperature;BMP_pressure;BME280_temperature;BME280_humidity;BME280_pressure;Samples;Min_cycle;Max_cycle;Signal;HPM_P1;HPM_P2
2022/05/22 00:01:15;;;;;;;2.55;1.40;;;15.60;98.90;;;;;;4948154;28;20054;-78
2022/05/22 00:03:41;;;;;;;4.97;1.90;;;15.50;99.20;;;;;;4954833;29;20120;-79
2022/05/22 00:06:07;;;;;;;3.10;1.70;;;15.50;99.20;;;;;;4955312;29;20080;-78
2022/05/22 00:08:33;;;;;;;1.90;1.25;;;15.40;99.50;;;;;;4956607;29;20519;-81
2022/05/22 00:10:58;;;;;;;2.60;1.60;;;15.40;99.60;;;;;;4956074;29;20066;-80
2022/05/22 00:13:24;;;;;;;4.57;1.90;;;15.40;99.50;;;;;;4956056;29;20030;-79
2022/05/22 00:18:34;;;;;;;1.73;1.40;;;15.20;99.90;;;;;;4956112;29;20487;-81
2022/05/22 00:20:59;;;;;;;2.15;1.67;;;15.20;99.90;;;;;;4940628;29;20121;-84
2022/05/22 00:23:25;;;;;;;2.95;1.50;;;15.10;99.90;;;;;;4956993;28;20055;-80
2022/05/22 00:25:55;;;;;;;3.95;1.58;;;15.20;99.90;;;;;;4971986;28;20037;-80
2022/05/22 00:28:21;;;;;;;4.18;1.60;;;15.10;99.90;;;;;;4959638;28;20122;-80
2022/05/22 00:30:47;;;;;;;4.20;1.83;;;15.10;99.90;;;;;;4958748;28;20483;-81
2022/05/22 00:33:12;;;;;;;5.20;1.60;;;15.10;99.90;;;;;;4976022;28;20027;-80
2022/05/22 00:35:40;;;;;;;2.30;1.60;;;15.10;99.90;;;;;;4975645;28;20392;-80
2022/05/22 00:38:05;;;;;;;3.70;1.85;;;15.00;99.90;;;;;;4974986;28;20550;-80
2022/05/22 00:40:31;;;;;;;3.22;1.70;;;14.90;99.90;;;;;;4974884;28;20122;-79
2022/05/22 00:42:56;;;;;;;2.55;1.60;;;15.00;99.90;;;;;;4974371;28;20019;-81
2022/05/22 00:45:22;;;;;;;5.68;1.73;;;14.90;99.90;;;;;;4974766;28;20121;-81
2022/05/22 00:47:50;;;;;;;3.13;1.88;;;14.80;99.90;;;;;;4975006;28;20023;-81
2022/05/22 00:50:16;;;;;;;2.78;1.55;;;14.80;99.90;;;;;;4975016;28;20035;-80
2022/05/22 00:52:53;;;;;;;3.92;1.63;;;14.70;99.90;;;;;;4974208;28;20027;-78
2022/05/22 00:55:28;;;;;;;3.25;1.90;;;14.50;99.90;;;;;;4975721;28;20070;-79
2022/05/22 00:58:00;;;;;;;3.03;1.70;;;14.60;99.90;;;;;;4974414;28;20111;-79
2022/05/22 01:00:28;;;;;;;;;;;14.50;99.90;;;;;;4958854;28;20102;-79
2022/05/22 01:05:44;;;;;;;2.47;1.80;;;14.50;99.90;;;;;;4974278;28;20033;-80
2022/05/22 01:08:10;;;;;;;3.13;1.70;;;14.50;99.90;;;;;;4958136;28;20029;-80
2022/05/22 01:10:43;;;;;;;2.28;1.33;;;14.50;99.90;;;;;;4975105;28;20059;-79
2022/05/22 01:13:11;;;;;;;4.70;2.08;;;14.50;99.90;;;;;;4975500;28;20509;-80
2022/05/22 01:15:37;;;;;;;2.80;1.88;;;14.40;99.90;;;;;;4974903;28;20086;-79
2022/05/22 01:18:03;;;;;;;1.95;1.67;;;14.30;99.90;;;;;;4974049;28;20035;-79
2022/05/22 01:20:28;;;;;;;4.45;2.05;;;14.40;99.90;;;;;;4974116;28;20034;-78
2022/05/22 01:22:54;;;;;;;3.60;1.70;;;14.40;99.90;;;;;;4957528;28;20030;-79
2022/05/22 01:25:20;;;;;;;3.30;1.50;;;14.50;99.90;;;;;;4957797;28;20488;-78
2022/05/22 01:27:45;;;;;;;4.28;1.67;;;14.50;99.90;;;;;;4957355;28;20039;-79
2022/05/22 01:30:22;;;;;;;2.53;1.48;;;14.50;99.90;;;;;;4973769;28;20444;-80
2022/05/22 01:32:48;;;;;;;3.78;1.70;;;14.60;99.90;;;;;;4973396;28;20033;-79
2022/05/22 01:35:18;;;;;;;2.70;1.30;;;14.50;99.90;;;;;;4957685;28;20026;-79
2022/05/22 01:37:45;;;;;;;3.28;1.40;;;14.50;99.90;;;;;;4974321;28;20027;-79
2022/05/22 01:40:12;;;;;;;2.67;1.27;;;14.50;99.90;;;;;;4974586;28;20162;-78
2022/05/22 01:42:39;;;;;;;1.98;1.50;;;14.50;99.90;;;;;;4973245;28;20031;-80
2022/05/22 01:45:05;;;;;;;5.18;1.63;;;14.40;99.90;;;;;;4973640;28;20181;-78
2022/05/22 01:47:36;;;;;;;4.40;1.60;;;14.30;99.90;;;;;;4957664;28;20114;-78
2022/05/22 01:50:02;;;;;;;2.22;1.40;;;14.40;99.90;;;;;;4974988;28;20178;-78
2022/05/22 01:52:28;;;;;;;4.15;1.58;;;14.40;99.90;;;;;;4973612;28;20038;-79
2022/05/22 01:54:53;;;;;;;1.95;1.35;;;14.20;99.90;;;;;;4972971;28;20031;-79
2022/05/22 01:57:19;;;;;;;3.65;1.23;;;14.20;99.90;;;;;;4973432;28;20035;-79
2022/05/22 01:59:45;;;;;;;2.08;1.55;;;14.20;99.90;;;;;;4974081;28;20035;-79
2022/05/22 02:02:10;;;;;;;4.38;1.70;;;14.20;99.90;;;;;;4973738;28;20073;-79
2022/05/22 02:04:36;;;;;;;3.70;2.15;;;14.20;99.90;;;;;;4973231;28;20456;-80
2022/05/22 02:09:46;;;;;;;3.30;1.50;;;14.40;99.90;;;;;;4974109;28;20075;-78
2022/05/22 02:12:12;;;;;;;3.58;1.63;;;14.30;99.90;;;;;;4973573;28;20027;-78
2022/05/22 02:14:37;;;;;;;2.20;1.52;;;14.30;99.90;;;;;;4974244;28;20027;-77
2022/05/22 02:17:03;;;;;;;1.85;1.40;;;14.30;99.90;;;;;;4957183;28;20392;-78
2022/05/22 02:19:29;;;;;;;2.33;1.10;;;14.20;99.90;;;;;;4976940;28;20122;-78
2022/05/22 02:21:54;;;;;;;2.60;1.60;;;14.20;99.90;;;;;;4977964;28;20444;-78
2022/05/22 02:24:20;;;;;;;3.35;1.50;;;14.10;99.90;;;;;;4976980;28;20062;-78
2022/05/22 02:26:45;;;;;;;3.05;1.50;;;14.10;99.90;;;;;;4976384;28;20043;-79
2022/05/22 02:29:11;;;;;;;1.80;1.38;;;14.20;99.90;;;;;;4976989;28;20369;-78
2022/05/22 02:31:37;;;;;;;5.00;1.58;;;14.20;99.90;;;;;;4977164;28;20031;-78
2022/05/22 02:34:03;;;;;;;2.60;1.35;;;14.30;99.90;;;;;;4976184;28;20027;-79
2022/05/22 02:36:28;;;;;;;2.00;1.33;;;14.30;99.90;;;;;;4977986;28;20073;-79
2022/05/22 02:38:54;;;;;;;2.63;1.40;;;14.30;99.90;;;;;;4960177;28;20441;-79
2022/05/22 02:41:20;;;;;;;2.08;1.17;;;14.20;99.90;;;;;;4976819;28;20037;-78
2022/05/22 02:43:47;;;;;;;2.17;1.20;;;14.20;99.90;;;;;;4976085;28;20040;-79
2022/05/22 02:46:14;;;;;;;2.85;1.70;;;14.20;99.90;;;;;;4976313;28;20027;-78
2022/05/22 02:48:42;;;;;;;1.63;1.30;;;14.20;99.90;;;;;;4976486;28;20034;-79
2022/05/22 02:51:11;;;;;;;3.17;1.30;;;14.20;99.90;;;;;;4976890;28;20026;-78
2022/05/22 02:53:37;;;;;;;2.45;1.10;;;14.10;99.90;;;;;;4960403;28;20027;-78
2022/05/22 02:56:23;;;;;;;4.32;1.13;;;14.10;99.90;;;;;;4975799;28;20042;-78
2022/05/22 02:58:48;;;;;;;2.38;1.50;;;14.10;99.90;;;;;;4976367;28;20417;-79
2022/05/22 03:01:14;;;;;;;3.50;1.27;;;14.00;99.90;;;;;;4976995;28;20061;-79
2022/05/22 03:03:40;;;;;;;2.25;1.20;;;13.90;99.90;;;;;;4977693;28;20062;-81
2022/05/22 03:08:50;;;;;;;2.47;1.33;;;13.90;99.90;;;;;;4977203;28;20073;-80
2022/05/22 03:11:15;;;;;;;4.30;1.30;;;13.90;99.90;;;;;;4960302;28;20063;-80
2022/05/22 03:13:41;;;;;;;2.42;1.30;;;13.90;99.90;;;;;;4959622;28;20030;-80
2022/05/22 03:16:07;;;;;;;3.85;1.33;;;13.90;99.90;;;;;;4976538;28;20081;-80
2022/05/22 03:18:33;;;;;;;3.03;1.10;;;13.90;99.90;;;;;;4976232;28;20042;-80
2022/05/22 03:20:58;;;;;;;1.60;1.13;;;13.80;99.90;;;;;;4959516;28;20034;-79
2022/05/22 03:23:24;;;;;;;3.08;1.25;;;13.70;99.90;;;;;;4976367;28;20042;-79
2022/05/22 03:25:50;;;;;;;2.38;1.10;;;13.70;99.90;;;;;;4975903;28;20022;-79
2022/05/22 03:28:17;;;;;;;1.60;1.30;;;13.60;99.90;;;;;;4976186;28;20043;-78
2022/05/22 03:30:43;;;;;;;2.20;1.30;;;13.50;99.90;;;;;;4976059;28;20030;-79
2022/05/22 03:33:09;;;;;;;1.98;1.27;;;13.40;99.90;;;;;;4976785;28;20507;-78
2022/05/22 03:35:35;;;;;;;4.90;1.30;;;13.40;99.90;;;;;;4976256;28;20027;-78
2022/05/22 03:38:04;;;;;;;1.58;1.20;;;13.40;99.90;;;;;;4974987;28;20818;-79
2022/05/22 03:40:30;;;;;;;2.30;1.13;;;13.40;99.90;;;;;;4976164;28;20164;-79
2022/05/22 03:42:56;;;;;;;1.98;1.30;;;13.40;99.90;;;;;;4975472;28;20031;-79
2022/05/22 03:45:22;;;;;;;2.15;1.20;;;13.40;99.90;;;;;;4975931;28;20483;-78
2022/05/22 03:47:48;;;;;;;3.50;1.00;;;13.40;99.90;;;;;;4975320;28;20023;-79
2022/05/22 03:50:14;;;;;;;3.05;1.30;;;13.40;99.90;;;;;;4975735;28;20502;-78
2022/05/22 03:52:43;;;;;;;2.03;1.17;;;13.40;99.90;;;;;;4975754;28;20122;-79
2022/05/22 03:55:12;;;;;;;2.63;1.25;;;13.40;99.90;;;;;;4975472;28;20026;-79
2022/05/22 03:57:37;;;;;;;1.75;1.00;;;13.40;99.90;;;;;;4975488;28;20035;-78
2022/05/22 04:00:09;;;;;;;3.28;1.42;;;13.30;99.90;;;;;;4975234;28;20042;-79
2022/05/22 04:02:35;;;;;;;2.53;1.10;;;13.40;99.90;;;;;;4975606;28;20096;-78
2022/05/22 04:05:07;;;;;;;2.08;1.30;;;13.40;99.90;;;;;;4976177;28;20528;-78
2022/05/22 04:07:39;;;;;;;2.30;1.13;;;13.50;99.90;;;;;;4975364;28;20031;-78
2022/05/22 04:10:06;;;;;;;1.98;1.23;;;13.50;99.90;;;;;;4974603;28;20058;-78
2022/05/22 04:12:32;;;;;;;2.00;1.20;;;13.40;99.90;;;;;;4976728;28;20035;-78
2022/05/22 04:14:58;;;;;;;3.17;1.20;;;13.50;99.90;;;;;;4974982;28;20027;-78
2022/05/22 04:17:23;;;;;;;2.15;1.02;;;13.60;99.90;;;;;;4959390;28;20468;-78
2022/05/22 04:19:50;;;;;;;2.03;1.40;;;13.60;99.90;;;;;;4974898;28;20027;-79
2022/05/22 04:22:16;;;;;;;2.63;1.38;;;13.60;99.90;;;;;;4975042;28;20038;-78
2022/05/22 04:27:26;;;;;;;5.72;1.30;;;13.70;99.90;;;;;;4976081;28;20408;-78
2022/05/22 04:29:52;;;;;;;3.20;1.38;;;13.70;99.90;;;;;;4973959;28;20054;-78
2022/05/22 04:32:18;;;;;;;4.30;1.70;;;13.80;99.90;;;;;;4974539;28;20062;-78
2022/05/22 04:34:43;;;;;;;2.35;1.50;;;13.80;99.90;;;;;;4975014;28;20031;-78
2022/05/22 04:37:09;;;;;;;2.08;1.30;;;13.60;99.90;;;;;;4974189;28;20031;-77
2022/05/22 04:39:35;;;;;;;2.53;1.20;;;13.70;99.90;;;;;;4976189;28;20038;-78
2022/05/22 04:42:01;;;;;;;2.67;1.30;;;13.70;99.90;;;;;;4973105;28;20023;-78
2022/05/22 04:44:26;;;;;;;2.47;1.20;;;13.70;99.90;;;;;;4975628;28;20069;-78
2022/05/22 04:46:52;;;;;;;2.78;1.45;;;13.80;99.90;;;;;;4957725;28;20031;-78
2022/05/22 04:49:17;;;;;;;2.80;1.30;;;13.80;99.90;;;;;;4958166;28;20034;-78
2022/05/22 04:51:43;;;;;;;1.52;1.10;;;13.90;99.90;;;;;;4974226;28;20084;-78
2022/05/22 04:54:10;;;;;;;4.03;1.45;;;13.90;99.90;;;;;;4958225;28;20029;-78
2022/05/22 04:56:36;;;;;;;2.00;1.10;;;13.90;99.90;;;;;;4974496;28;20483;-78
2022/05/22 04:59:02;;;;;;;4.32;1.55;;;13.90;99.90;;;;;;4975466;28;20065;-78
2022/05/22 05:01:28;;;;;;;2.97;1.33;;;14.00;99.90;;;;;;4974462;28;20023;-78
2022/05/22 05:03:53;;;;;;;3.72;1.27;;;14.00;99.90;;;;;;4974126;28;20031;-78
2022/05/22 05:06:19;;;;;;;1.75;1.35;;;14.00;99.90;;;;;;4974495;28;20031;-78
2022/05/22 05:08:45;;;;;;;1.73;1.20;;;14.00;99.90;;;;;;4975352;28;20477;-78
2022/05/22 05:11:11;;;;;;;2.42;0.98;;;14.00;99.90;;;;;;4973756;28;20035;-78
2022/05/22 05:13:37;;;;;;;1.95;1.10;;;14.00;99.90;;;;;;4975148;28;20023;-78
2022/05/22 05:16:08;;;;;;;3.47;1.23;;;14.00;99.90;;;;;;4974759;28;20027;-78
2022/05/22 05:18:36;;;;;;;1.35;0.90;;;14.00;99.90;;;;;;4974003;28;20114;-78
2022/05/22 05:21:04;;;;;;;2.10;1.13;;;14.00;99.90;;;;;;4973532;28;20387;-79
2022/05/22 05:23:30;;;;;;;3.03;1.13;;;14.00;99.90;;;;;;4974054;28;20079;-79
2022/05/22 05:25:56;;;;;;;1.60;1.00;;;14.00;99.90;;;;;;4973958;28;20054;-79
2022/05/22 05:28:22;;;;;;;1.20;1.10;;;13.90;99.90;;;;;;4975004;28;20380;-78
2022/05/22 05:30:47;;;;;;;2.88;1.42;;;14.00;99.90;;;;;;4973917;28;20035;-79
2022/05/22 05:33:13;;;;;;;3.10;1.10;;;14.00;99.90;;;;;;4973599;28;20049;-79
2022/05/22 05:35:39;;;;;;;2.80;1.30;;;13.90;99.90;;;;;;4973891;28;20043;-79
2022/05/22 05:38:05;;;;;;;1.83;1.20;;;14.00;99.90;;;;;;4972914;28;20034;-78
2022/05/22 05:40:31;;;;;;;1.40;1.05;;;14.00;99.90;;;;;;4957661;28;20030;-78
2022/05/22 05:42:57;;;;;;;2.72;1.25;;;14.00;99.90;;;;;;4974059;28;20053;-79
2022/05/22 05:45:24;;;;;;;1.40;0.90;;;14.10;99.90;;;;;;4973854;28;20027;-79
2022/05/22 05:47:50;;;;;;;2.03;1.20;;;14.10;99.90;;;;;;4974593;28;20027;-77
2022/05/22 05:50:21;;;;;;;4.80;1.08;;;14.20;99.90;;;;;;4957174;28;20061;-78
2022/05/22 05:52:58;;;;;;;2.63;1.30;;;14.10;99.90;;;;;;4973437;28;20031;-79
2022/05/22 05:55:24;;;;;;;3.88;1.42;;;14.10;99.90;;;;;;4973793;28;20093;-79
2022/05/22 05:57:50;;;;;;;1.75;1.00;;;14.20;99.90;;;;;;4956941;28;20101;-78
2022/05/22 06:00:19;;;;;;;3.75;0.85;;;14.30;99.90;;;;;;4973501;28;20070;-79
2022/05/22 06:02:44;;;;;;;3.42;1.10;;;14.30;99.90;;;;;;4974512;28;20026;-79
2022/05/22 06:05:12;;;;;;;2.40;1.10;;;14.30;99.90;;;;;;4973707;28;20030;-79
2022/05/22 06:07:37;;;;;;;1.10;0.85;;;14.40;99.90;;;;;;4973185;28;20031;-78
2022/05/22 06:10:06;;;;;;;1.75;1.00;;;14.50;99.90;;;;;;4973868;28;20090;-78
2022/05/22 06:12:32;;;;;;;1.98;1.30;;;14.50;99.90;;;;;;4974503;28;20030;-78
2022/05/22 06:14:57;;;;;;;1.25;0.90;;;14.50;99.90;;;;;;4972859;28;20361;-78
2022/05/22 06:17:35;;;;;;;2.42;1.42;;;14.60;99.90;;;;;;4973430;28;20038;-78
2022/05/22 06:20:05;;;;;;;1.40;1.13;;;14.80;99.90;;;;;;4973013;28;20126;-78
2022/05/22 06:22:33;;;;;;;2.65;1.25;;;14.90;99.90;;;;;;4973332;28;20031;-78
2022/05/22 06:24:58;;;;;;;2.03;1.15;;;14.90;99.90;;;;;;4971922;28;20047;-78
2022/05/22 06:27:24;;;;;;;1.27;1.10;;;15.00;99.90;;;;;;4974151;28;20062;-77
2022/05/22 06:29:50;;;;;;;3.15;1.33;;;15.00;99.90;;;;;;4974143;28;20376;-77
2022/05/22 06:32:18;;;;;;;2.17;1.10;;;15.10;99.90;;;;;;4972214;28;20034;-77
2022/05/22 06:34:44;;;;;;;4.43;1.20;;;15.10;99.90;;;;;;4973151;28;20031;-78
2022/05/22 06:37:13;;;;;;;2.72;1.30;;;15.20;99.90;;;;;;4972307;28;20496;-78
2022/05/22 06:39:52;;;;;;;16.17;9.43;;;15.30;99.90;;;;;;4973361;28;20049;-79
2022/05/22 06:42:20;;;;;;;4.68;2.70;;;15.40;99.90;;;;;;4972854;28;20034;-79
2022/05/22 06:44:59;;;;;;;2.53;1.83;;;15.50;99.90;;;;;;4957059;28;20035;-79
2022/05/22 06:47:27;;;;;;;3.22;1.63;;;15.50;99.90;;;;;;4972760;28;20030;-78
2022/05/22 06:49:54;;;;;;;1.35;1.13;;;15.50;99.90;;;;;;4973726;28;20033;-78
2022/05/22 06:52:20;;;;;;;1.70;1.02;;;15.60;99.90;;;;;;4973754;28;20464;-79
2022/05/22 06:54:46;;;;;;;2.58;1.15;;;15.70;99.90;;;;;;4972838;28;20085;-79
2022/05/22 06:57:16;;;;;;;1.98;1.15;;;15.80;99.90;;;;;;4956083;28;20057;-79
2022/05/22 06:59:43;;;;;;;3.22;1.30;;;15.90;99.90;;;;;;4972540;28;20039;-79
2022/05/22 07:02:09;;;;;;;2.88;0.90;;;16.00;99.90;;;;;;4972249;28;20361;-79
2022/05/22 07:04:34;;;;;;;4.75;1.20;;;16.00;99.90;;;;;;4957748;28;20038;-78
2022/05/22 07:07:00;;;;;;;7.30;1.10;;;16.00;99.90;;;;;;4976643;28;20480;-79
2022/05/22 07:09:26;;;;;;;4.38;1.50;;;16.10;99.90;;;;;;4959995;28;20160;-79
2022/05/22 07:11:54;;;;;;;3.00;1.08;;;16.20;99.90;;;;;;4975862;28;20037;-79
2022/05/22 07:14:20;;;;;;;3.10;1.05;;;16.30;99.90;;;;;;4959896;28;20069;-79
2022/05/22 07:16:46;;;;;;;4.65;1.30;;;16.30;99.90;;;;;;4976254;28;20054;-79
2022/05/22 07:19:13;;;;;;;3.75;1.25;;;16.30;99.90;;;;;;4975581;28;20035;-78
2022/05/22 07:21:38;;;;;;;5.82;1.30;;;16.30;99.90;;;;;;4977429;28;20031;-79
2022/05/22 07:24:05;;;;;;;2.33;1.20;;;16.40;99.90;;;;;;4975546;28;20137;-80
2022/05/22 07:26:31;;;;;;;1.73;1.05;;;16.40;99.90;;;;;;4960004;28;20031;-80
2022/05/22 07:29:01;;;;;;;1.80;1.30;;;16.40;99.90;;;;;;4976487;28;20106;-80
2022/05/22 07:31:27;;;;;;;3.72;1.08;;;16.50;99.90;;;;;;4978141;28;20095;-81
2022/05/22 07:33:53;;;;;;;3.10;1.50;;;16.50;99.90;;;;;;4968520;28;20039;-81
2022/05/22 07:36:20;;;;;;;2.83;1.38;;;16.50;99.90;;;;;;4971851;28;20129;-80
2022/05/22 07:38:46;;;;;;;1.98;1.30;;;16.50;99.90;;;;;;4984070;28;20085;-80
2022/05/22 07:41:12;;;;;;;2.55;1.20;;;16.50;99.90;;;;;;4975391;28;20023;-80
2022/05/22 07:43:39;;;;;;;4.82;1.50;;;16.60;99.90;;;;;;4959840;28;20038;-81
2022/05/22 07:46:06;;;;;;;2.97;1.33;;;16.60;99.80;;;;;;4972960;28;20030;-78
2022/05/22 07:48:31;;;;;;;2.42;1.27;;;16.70;99.70;;;;;;4956600;29;20027;-77
2022/05/22 07:51:00;;;;;;;3.17;1.80;;;16.70;99.60;;;;;;4963209;28;20019;-78
2022/05/22 07:53:27;;;;;;;3.45;1.65;;;16.70;99.70;;;;;;4975107;28;20023;-78
2022/05/22 07:55:53;;;;;;;5.30;1.52;;;16.70;99.80;;;;;;4956848;28;20030;-78
2022/05/22 07:58:21;;;;;;;5.45;2.08;;;16.70;99.90;;;;;;4958318;28;20027;-78
2022/05/22 08:00:47;;;;;;;4.50;1.75;;;16.80;99.90;;;;;;4958868;28;20503;-78
2022/05/22 08:03:15;;;;;;;3.15;1.40;;;16.90;99.90;;;;;;4974620;28;20081;-77
2022/05/22 08:05:42;;;;;;;4.28;1.60;;;17.00;99.90;;;;;;4975319;28;20125;-78
2022/05/22 08:08:09;;;;;;;3.67;1.70;;;17.10;99.30;;;;;;4958679;28;20472;-78
2022/05/22 08:10:36;;;;;;;3.25;1.40;;;17.10;99.30;;;;;;4975236;28;20141;-78
2022/05/22 08:13:04;;;;;;;2.88;1.30;;;17.10;99.60;;;;;;4974584;28;20507;-78
2022/05/22 08:15:31;;;;;;;1.25;1.05;;;17.10;99.30;;;;;;4959115;28;20047;-79
2022/05/22 08:17:57;;;;;;;4.53;1.85;;;17.20;99.40;;;;;;4976445;28;20495;-78
2022/05/22 08:20:25;;;;;;;3.17;1.80;;;17.20;99.30;;;;;;4975493;28;20046;-79
2022/05/22 08:22:59;;;;;;;4.97;1.35;;;17.30;98.80;;;;;;4975106;28;20026;-79
2022/05/22 08:25:27;;;;;;;3.22;1.50;;;17.20;98.30;;;;;;4974092;28;20047;-79
2022/05/22 08:27:53;;;;;;;1.55;1.20;;;17.30;98.70;;;;;;4976000;28;20376;-79
2022/05/22 08:30:21;;;;;;;2.22;1.40;;;17.20;98.60;;;;;;4974921;28;20031;-79
2022/05/22 08:32:49;;;;;;;2.63;1.25;;;17.30;98.60;;;;;;4964096;28;20034;-79
2022/05/22 08:35:18;;;;;;;3.83;1.45;;;17.30;98.80;;;;;;4971785;28;20469;-80
2022/05/22 08:37:43;;;;;;;3.88;1.70;;;17.40;98.40;;;;;;4974650;28;20109;-79
2022/05/22 08:40:12;;;;;;;1.92;1.20;;;17.50;98.10;;;;;;4973220;28;20433;-79
2022/05/22 08:42:48;;;;;;;3.22;1.20;;;17.50;98.20;;;;;;4973877;28;20019;-79
2022/05/22 08:45:24;;;;;;;3.65;1.25;;;17.60;98.00;;;;;;4971556;28;20030;-79
2022/05/22 08:48:07;;;;;;;2.20;1.30;;;17.70;98.00;;;;;;4974522;28;20027;-80
2022/05/22 08:50:35;;;;;;;2.47;1.15;;;17.70;97.20;;;;;;4971500;28;20420;-79
2022/05/22 08:53:08;;;;;;;2.40;1.20;;;17.80;96.90;;;;;;4973996;28;20237;-79
2022/05/22 09:01:19;;;;;;;2.95;1.13;;;17.90;96.20;;;;;;4970246;28;20543;-79
2022/05/22 09:04:30;;;;;;;3.05;0.80;;;18.00;94.40;;;;;;4974164;28;20035;-80
2022/05/22 09:07:44;;;;;;;2.67;0.88;;;18.00;94.90;;;;;;4969809;28;20038;-85
2022/05/22 09:10:20;;;;;;;2.85;1.02;;;18.10;94.80;;;;;;4906026;28;20046;-87
2022/05/22 09:12:55;;;;;;;2.05;0.90;;;18.20;94.30;;;;;;4976178;28;20035;-85
2022/05/22 09:15:42;;;;;;;0.88;0.60;;;18.20;93.90;;;;;;4956983;28;20231;-85
2022/05/22 09:18:37;;;;;;;1.20;0.80;;;18.30;93.70;;;;;;4957566;28;20387;-86
2022/05/22 09:21:31;;;;;;;3.72;0.85;;;18.40;94.20;;;;;;4973476;28;20118;-82
2022/05/22 09:24:02;;;;;;;2.90;0.80;;;18.40;93.70;;;;;;4976208;28;20046;-86
2022/05/22 09:26:52;;;;;;;2.35;0.73;;;18.40;93.50;;;;;;4976000;28;20159;-89
2022/05/22 09:29:36;;;;;;;6.68;0.80;;;18.40;93.30;;;;;;4970054;28;20483;-84
2022/05/22 09:32:29;;;;;;;5.10;0.95;;;18.50;92.90;;;;;;4967331;28;20023;-83
2022/05/22 09:35:29;;;;;;;4.28;0.80;;;18.70;92.10;;;;;;4969877;28;20027;-83
2022/05/22 09:38:39;;;;;;;6.00;2.30;;;18.80;91.40;;;;;;4961818;28;20019;-80
2022/05/22 09:41:31;;;;;;;4.43;1.60;;;18.80;90.50;;;;;;4960913;28;20381;-83
2022/05/22 09:44:21;;;;;;;3.40;1.05;;;18.90;90.70;;;;;;4959073;28;20114;-81
2022/05/22 09:46:56;;;;;;;1.35;0.70;;;18.90;91.00;;;;;;4954759;29;20037;-84
2022/05/22 09:49:25;;;;;;;2.70;1.00;;;19.00;90.80;;;;;;4954323;28;20031;-85
2022/05/22 09:52:10;;;;;;;5.40;1.20;;;19.10;90.80;;;;;;4954474;29;20027;-85
2022/05/22 09:55:07;;;;;;;1.75;0.80;;;19.10;90.60;;;;;;4965471;28;20030;-78
2022/05/22 09:57:52;;;;;;;1.67;0.88;;;19.10;90.40;;;;;;4970584;28;20503;-79
2022/05/22 10:00:27;;;;;;;2.85;0.63;;;19.10;90.60;;;;;;4957273;28;20046;-80
2022/05/22 10:03:13;;;;;;;3.20;0.60;;;19.10;90.10;;;;;;4970087;28;20027;-89
2022/05/22 10:06:12;;;;;;;1.60;0.70;;;19.10;89.40;;;;;;4954608;28;20038;-82
2022/05/22 10:08:58;;;;;;;3.00;0.65;;;19.30;89.20;;;;;;4955186;28;20023;-83
2022/05/22 10:11:52;;;;;;;1.65;0.85;;;19.30;89.50;;;;;;4942953;28;20128;-82
2022/05/22 10:14:48;;;;;;;3.13;0.63;;;19.40;89.80;;;;;;4971231;28;20035;-81
2022/05/22 10:17:29;;;;;;;1.90;0.70;;;19.40;88.50;;;;;;4973851;28;20497;-88
2022/05/22 10:20:07;;;;;;;1.95;0.70;;;19.40;88.50;;;;;;4962499;28;20031;-86
2022/05/22 10:23:04;;;;;;;1.85;0.95;;;19.50;90.00;;;;;;4967220;28;20031;-91
2022/05/22 10:26:00;;;;;;;1.75;0.80;;;19.60;88.10;;;;;;4950167;29;20087;-94
2022/05/22 10:28:32;;;;;;;4.68;0.75;;;19.50;88.30;;;;;;4927091;29;20040;-91
2022/05/22 10:31:07;;;;;;;2.55;0.80;;;19.70;88.20;;;;;;4949689;29;20098;-89
2022/05/22 10:33:58;;;;;;;2.38;0.90;;;19.70;87.30;;;;;;4952554;29;20031;-96
2022/05/22 10:36:38;;;;;;;1.48;0.90;;;19.70;86.10;;;;;;4935116;29;20627;-81
2022/05/22 10:39:10;;;;;;;2.08;0.70;;;19.80;85.60;;;;;;4952758;28;20035;-80
2022/05/22 10:44:41;;;;;;;2.92;0.80;;;19.90;85.60;;;;;;4951708;29;20054;-83
2022/05/22 10:47:07;;;;;;;1.00;0.68;;;20.20;85.70;;;;;;4934950;29;20027;-81
2022/05/22 10:49:42;;;;;;;1.58;0.75;;;20.30;83.80;;;;;;4939607;29;20036;-81
2022/05/22 10:52:11;;;;;;;1.88;0.60;;;20.30;81.60;;;;;;4948932;29;20059;-85
2022/05/22 10:54:48;;;;;;;3.03;1.00;;;20.40;81.90;;;;;;4949742;29;20035;-90
2022/05/22 10:57:21;;;;;;;3.42;0.70;;;20.50;82.30;;;;;;4935693;29;20042;-82
2022/05/22 10:59:47;;;;;;;2.67;0.82;;;20.60;81.10;;;;;;4922559;29;20036;-83
2022/05/22 11:02:33;;;;;;;4.13;0.70;;;20.70;80.70;;;;;;4946659;28;20032;-81
2022/05/22 11:04:59;;;;;;;2.28;1.00;;;20.80;78.70;;;;;;4951350;29;20047;-84
2022/05/22 11:07:43;;;;;;;2.50;0.77;;;20.90;76.80;;;;;;4933118;29;20054;-82
2022/05/22 11:10:25;;;;;;;3.28;1.15;;;21.00;76.60;;;;;;4956065;29;20082;-80
2022/05/22 11:13:03;;;;;;;2.97;0.80;;;21.10;77.20;;;;;;4939215;29;20055;-81
2022/05/22 11:15:32;;;;;;;2.90;0.80;;;21.20;77.40;;;;;;4953488;29;20055;-82
2022/05/22 11:18:02;;;;;;;1.10;0.70;;;21.30;77.40;;;;;;4953503;28;20472;-85
2022/05/22 11:20:28;;;;;;;1.42;0.63;;;21.40;77.40;;;;;;4947248;28;20391;-81
2022/05/22 11:23:28;;;;;;;4.88;0.90;;;21.40;78.00;;;;;;4958044;28;20031;-84
2022/05/22 11:26:08;;;;;;;3.75;0.80;;;21.40;76.40;;;;;;4922928;29;20039;-82
2022/05/22 11:29:01;;;;;;;1.95;0.70;;;21.50;77.20;;;;;;4949630;29;20396;-83
2022/05/22 11:31:48;;;;;;;2.50;0.93;;;21.50;75.40;;;;;;4930824;29;20032;-80
2022/05/22 11:34:23;;;;;;;3.05;0.73;;;21.50;77.20;;;;;;4945513;29;20027;-89
2022/05/22 11:37:22;;;;;;;3.75;1.20;;;21.60;76.80;;;;;;4938647;29;20027;-83
2022/05/22 11:39:54;;;;;;;2.67;0.75;;;21.60;76.40;;;;;;4954151;29;20035;-83
2022/05/22 11:42:37;;;;;;;1.30;0.57;;;21.70;76.70;;;;;;4954361;29;20066;-78
2022/05/22 11:45:09;;;;;;;1.10;0.50;;;21.70;75.50;;;;;;4955254;29;20031;-81
2022/05/22 11:47:37;;;;;;;;;;;21.70;74.80;;;;;;4939809;29;20059;-88
2022/05/22 11:50:12;;;;;;;2.03;0.77;;;21.80;74.60;;;;;;4939449;29;19965;-88
2022/05/22 11:53:15;;;;;;;2.40;0.90;;;21.90;74.10;;;;;;4942546;29;20169;-84
2022/05/22 11:55:58;;;;;;;2.53;0.90;;;22.00;72.70;;;;;;4940063;29;20051;-85
2022/05/22 11:58:30;;;;;;;0.95;0.60;;;22.20;73.60;;;;;;4943988;29;20513;-82
2022/05/22 12:00:58;;;;;;;3.35;0.80;;;22.30;73.60;;;;;;4955687;28;20098;-78
2022/05/22 12:03:46;;;;;;;1.65;0.70;;;22.30;72.30;;;;;;4965468;28;20240;-78
2022/05/22 12:06:38;;;;;;;1.45;0.80;;;22.40;71.90;;;;;;4949170;29;20019;-78
2022/05/22 12:09:07;;;;;;;4.35;0.85;;;22.40;71.80;;;;;;4947780;29;20039;-80
2022/05/22 12:11:54;;;;;;;4.43;0.98;;;22.60;70.90;;;;;;4954263;29;20059;-80
2022/05/22 12:15:06;;;;;;;1.52;0.80;;;22.70;70.70;;;;;;4929068;29;20090;-79
2022/05/22 12:17:57;;;;;;;3.70;0.70;;;22.90;69.60;;;;;;4950796;29;20035;-80
2022/05/22 12:20:29;;;;;;;1.85;0.60;;;23.00;68.90;;;;;;4943546;29;20472;-81
2022/05/22 12:23:25;;;;;;;3.20;0.80;;;23.10;67.20;;;;;;4954038;29;20493;-83
2022/05/22 12:26:01;;;;;;;1.95;0.73;;;23.30;66.50;;;;;;4939028;29;20486;-78
2022/05/22 12:28:41;;;;;;;0.93;0.70;;;23.30;66.20;;;;;;4937248;29;20046;-78
2022/05/22 12:31:28;;;;;;;2.10;0.52;;;23.50;65.80;;;;;;4957010;28;20034;-77
2022/05/22 12:34:01;;;;;;;3.38;0.70;;;23.60;65.60;;;;;;4938038;29;20062;-78
2022/05/22 12:36:29;;;;;;;1.80;0.63;;;23.80;64.60;;;;;;4944484;29;20042;-78
2022/05/22 12:39:06;;;;;;;1.17;0.55;;;23.80;64.00;;;;;;4952044;28;20049;-78
2022/05/22 12:42:01;;;;;;;1.73;0.80;;;23.90;63.70;;;;;;4943004;29;20055;-78
2022/05/22 12:44:28;;;;;;;1.20;0.68;;;24.10;62.30;;;;;;4944316;29;20614;-78
2022/05/22 12:46:56;;;;;;;1.90;0.70;;;24.20;62.20;;;;;;4935387;29;20026;-78
2022/05/22 12:49:30;;;;;;;1.52;0.88;;;24.30;61.60;;;;;;4926991;29;20041;-78
2022/05/22 12:51:58;;;;;;;2.97;0.77;;;24.50;60.70;;;;;;4951774;28;20401;-78
2022/05/22 12:54:25;;;;;;;1.30;0.70;;;24.70;58.30;;;;;;4945621;29;20382;-78
2022/05/22 12:56:52;;;;;;;0.80;0.57;;;24.70;58.70;;;;;;4933961;29;20057;-78
2022/05/22 12:59:27;;;;;;;1.83;0.73;;;24.80;59.10;;;;;;4942480;29;20396;-78
2022/05/22 13:01:56;;;;;;;2.47;0.52;;;25.00;57.00;;;;;;4945592;28;20032;-78
2022/05/22 13:04:35;;;;;;;2.55;0.50;;;25.20;56.70;;;;;;4936861;29;20027;-78
2022/05/22 13:07:06;;;;;;;1.45;0.50;;;25.20;55.40;;;;;;4947987;28;20091;-79
2022/05/22 13:09:32;;;;;;;1.15;0.60;;;25.10;54.80;;;;;;4948255;29;20485;-85
2022/05/22 13:12:02;;;;;;;1.35;0.60;;;25.00;54.80;;;;;;4933749;29;20035;-83
2022/05/22 13:14:32;;;;;;;1.38;0.47;;;24.90;54.80;;;;;;4938751;29;20020;-82
2022/05/22 13:16:59;;;;;;;11.20;0.90;;;24.80;54.80;;;;;;4951449;29;20027;-84
2022/05/22 13:19:27;;;;;;;1.95;0.57;;;25.20;54.80;;;;;;4935415;29;20035;-85
2022/05/22 13:21:54;;;;;;;0.88;0.70;;;25.70;54.00;;;;;;4947119;28;20030;-80
2022/05/22 13:24:49;;;;;;;2.05;0.70;;;26.10;54.10;;;;;;4964418;28;20055;-80
2022/05/22 13:27:30;;;;;;;2.60;0.73;;;26.20;52.60;;;;;;4969794;28;20491;-80
2022/05/22 13:29:59;;;;;;;0.98;0.57;;;26.20;52.50;;;;;;4969504;28;20507;-81
2022/05/22 13:32:35;;;;;;;1.42;0.50;;;26.10;52.30;;;;;;4954031;28;20050;-80